Time;durP1;ratioP1;P1;durP2;ratioP2;P2;SDS_P1;SDS_P2;PMS_P1;PMS_P2;Temp;Humidity;BMP_temperature;BMP_pressure;BME280_temperature;BME280_humidity;BME280_pressure;Samples;Min_cycle;Max_cycle;Signal;HPM_P1;HPM_P2
2023/03/11 00:00:15;;;;;;;;;;;;;;;0.64;81.31;98648.95;107303;1256;65925;-83
2023/03/11 00:03:03;;;;;;;;;;;;;;;0.61;81.31;98643.17;107388;1257;72275;-85
2023/03/11 00:05:30;;;;;;;;;;;;;;;0.63;81.44;98637.85;107152;1260;61489;-85
2023/03/11 00:08:15;;;;;;;;;;;;;;;0.66;81.58;98632.96;107151;1259;124893;-84
2023/03/11 00:10:45;;;;;;;;;;;;;;;0.64;81.35;98630.34;107650;1254;74675;-83
2023/03/11 00:13:14;;;;;;;;;;;;;;;0.68;81.67;98636.48;107599;1254;124753;-82
2023/03/11 00:15:44;;;;;;;;;;;;;;;0.68;81.57;98636.84;107512;1258;72456;-84
2023/03/11 00:18:31;;;;;;;;;;;;;;;0.65;81.53;98637.93;107392;1254;61004;-85
2023/03/11 00:21:04;;;;;;;;;;;;;;;0.62;81.49;98633.88;107232;1255;124100;-85
2023/03/11 00:23:34;;;;;;;;;;;;;;;0.64;81.58;98631.86;107393;1257;73397;-82
2023/03/11 00:26:02;;;;;;;;;;;;;;;0.62;81.45;98636.65;107185;1260;125138;-83
2023/03/11 00:28:29;;;;;;;;;;;;;;;0.63;81.53;98638.23;107721;1258;72718;-82
2023/03/11 00:30:57;;;;;;;;;;;;;;;0.64;81.49;98638.79;107539;1257;124473;-83
2023/03/11 00:33:25;;;;;;;;;;;;;;;0.66;81.77;98631.92;107477;1256;59571;-83
2023/03/11 00:35:52;;;;;;;;;;;;;;;0.69;81.68;98630.30;107613;1256;72204;-83
2023/03/11 00:38:19;;;;;;;;;;;;;;;0.69;81.57;98623.91;107690;1259;125013;-83
2023/03/11 00:40:46;;;;;;;;;;;;;;;0.67;81.74;98624.20;107993;1257;72822;-83
2023/03/11 00:43:14;;;;;;;;;;;;;;;0.65;81.68;98621.73;107637;1256;124853;-83
2023/03/11 00:45:42;;;;;;;;;;;;;;;0.64;81.47;98620.30;107780;1257;59673;-83
2023/03/11 00:48:10;;;;;;;;;;;;;;;0.64;81.70;98622.71;107766;1257;74545;-83
2023/03/11 00:50:37;;;;;;;;;;;;;;;0.62;82.26;98620.77;107956;1256;124271;-83
2023/03/11 00:53:04;;;;;;;;;;;;;;;0.59;82.47;98618.79;107976;1255;72211;-83
2023/03/11 00:55:31;;;;;;;;;;;;;;;0.61;82.02;98612.95;107742;1258;124342;-83
2023/03/11 00:57:59;;;;;;;;;;;;;;;0.61;82.07;98618.83;107852;1261;60459;-83
2023/03/11 01:00:29;;;;;;;;;;;;;;;0.56;81.92;98615.23;107777;1258;74712;-83
2023/03/11 01:02:56;;;;;;;;;;;;;;;0.51;82.45;98616.97;107783;1256;124036;-82
2023/03/11 01:05:25;;;;;;;;;;;;;;;0.49;82.45;98617.60;107711;1257;74343;-83
2023/03/11 01:07:53;;;;;;;;;;;;;;;0.48;82.43;98617.58;107574;1256;124687;-83
2023/03/11 01:10:20;;;;;;;;;;;;;;;0.48;82.45;98619.81;107566;1258;60608;-82
2023/03/11 01:12:47;;;;;;;;;;;;;;;0.47;82.23;98622.55;107519;1260;125140;-82
2023/03/11 01:15:16;;;;;;;;;;;;;;;0.45;82.31;98618.20;107595;1257;64744;-83
2023/03/11 01:17:43;;;;;;;;;;;;;;;0.47;82.50;98617.70;107695;1257;73284;-82
2023/03/11 01:20:11;;;;;;;;;;;;;;;0.50;82.19;98618.67;107539;1257;125038;-82
2023/03/11 01:22:38;;;;;;;;;;;;;;;0.48;82.39;98617.76;107725;1258;60192;-82
2023/03/11 01:25:05;;;;;;;;;;;;;;;0.45;82.68;98616.64;107384;1260;125293;-82
2023/03/11 01:27:32;;;;;;;;;;;;;;;0.45;82.80;98618.52;107462;1258;65898;-82
2023/03/11 01:29:59;;;;;;;;;;;;;;;0.45;82.69;98611.63;107559;1259;71487;-82
2023/03/11 01:32:26;;;;;;;;;;;;;;;0.46;82.87;98614.74;107763;1259;124984;-83
2023/03/11 01:34:53;;;;;;;;;;;;;;;0.41;82.54;98612.19;107832;1255;61215;-82
2023/03/11 01:37:20;;;;;;;;;;;;;;;0.34;82.58;98607.85;107810;1255;124576;-82
2023/03/11 01:39:54;;;;;;;;;;;;;;;0.35;82.98;98613.20;107566;1256;68125;-85
2023/03/11 01:42:27;;;;;;;;;;;;;;;0.30;83.01;98612.54;107766;1256;71574;-84
2023/03/11 01:44:54;;;;;;;;;;;;;;;0.29;83.41;98613.89;107291;1257;124456;-85
2023/03/11 01:47:46;;;;;;;;;;;;;;;0.27;83.48;98617.80;107652;1257;59952;-85
2023/03/11 01:50:13;;;;;;;;;;;;;;;0.23;83.37;98613.69;107825;1255;124474;-82
2023/03/11 01:52:40;;;;;;;;;;;;;;;0.18;83.49;98613.70;108118;1260;66833;-82
2023/03/11 01:55:07;;;;;;;;;;;;;;;0.14;83.62;98612.05;107764;1261;72736;-82
2023/03/11 01:57:47;;;;;;;;;;;;;;;0.13;83.70;98614.59;107470;1257;61147;-84
2023/03/11 02:00:15;;;;;;;;;;;;;;;0.13;83.56;98614.27;107262;1255;61331;-84
2023/03/11 02:03:10;;;;;;;;;;;;;;;0.10;83.71;98612.27;107246;1257;73377;-84
2023/03/11 02:05:45;;;;;;;;;;;;;;;0.09;83.96;98608.79;107411;1257;65890;-85
2023/03/11 02:08:12;;;;;;;;;;;;;;;0.09;83.87;98609.30;107231;1255;124733;-85
2023/03/11 02:10:40;;;;;;;;;;;;;;;0.12;83.92;98606.79;107384;1258;61682;-85
2023/03/11 02:13:13;;;;;;;;;;;;;;;0.13;83.85;98604.43;107192;1255;124417;-85
2023/03/11 02:15:52;;;;;;;;;;;;;;;0.14;84.01;98598.77;107120;1258;73449;-84
2023/03/11 02:18:21;;;;;;;;;;;;;;;0.16;84.17;98605.88;107341;1256;67063;-85
2023/03/11 02:21:03;;;;;;;;;;;;;;;0.14;84.08;98605.68;107131;1258;124352;-83
2023/03/11 02:23:33;;;;;;;;;;;;;;;0.11;84.02;98612.79;107558;1260;59753;-83
2023/03/11 02:26:08;;;;;;;;;;;;;;;0.09;84.22;98609.45;107275;1256;124404;-83
2023/03/11 02:28:35;;;;;;;;;;;;;;;0.07;84.63;98613.00;108862;1256;74712;-82
2023/03/11 02:31:08;;;;;;;;;;;;;;;0.03;85.86;98610.99;107975;1254;124510;-84
2023/03/11 02:33:35;;;;;;;;;;;;;;;0.03;86.77;98607.38;107416;1254;71414;-82
2023/03/11 02:36:06;;;;;;;;;;;;;;;0.03;87.39;98606.67;107548;1254;61248;-83
2023/03/11 02:38:45;;;;;;;;;;;;;;;0.03;87.54;98609.62;107449;1256;124596;-83
2023/03/11 02:41:12;;;;;;;;;;;;;;;0.03;87.91;98613.41;107522;1254;72662;-84
2023/03/11 02:43:44;;;;;;;;;;;;;;;0.04;88.06;98617.92;107364;1257;124446;-83
2023/03/11 02:46:11;;;;;;;;;;;;;;;0.04;88.54;98616.70;107231;1257;71475;-84
2023/03/11 02:48:47;;;;;;;;;;;;;;;0.05;88.80;98616.20;107298;1254;59528;-83
2023/03/11 02:51:16;;;;;;;;;;;;;;;0.04;89.01;98612.73;107471;1254;61206;-84
2023/03/11 02:53:53;;;;;;;;;;;;;;;0.03;90.48;98616.15;107395;1254;75103;-84
2023/03/11 02:56:20;;;;;;;;;;;;;;;0.00;91.32;98617.46;107250;1254;124528;-83
2023/03/11 02:58:48;;;;;;;;;;;;;;;-0.00;90.83;98617.63;107442;1254;71392;-83
2023/03/11 03:01:15;;;;;;;;;;;;;;;-0.03;90.50;98626.67;107526;1254;124587;-83
2023/03/11 03:03:42;;;;;;;;;;;;;;;-0.05;90.60;98625.73;107762;1254;61100;-83
2023/03/11 03:06:09;;;;;;;;;;;;;;;-0.05;90.69;98630.55;107664;1254;74636;-83
2023/03/11 03:08:37;;;;;;;;;;;;;;;-0.09;91.47;98637.85;107398;1254;125015;-83
2023/03/11 03:11:04;;;;;;;;;;;;;;;-0.12;91.98;98632.23;107380;1254;72715;-83
2023/03/11 03:13:31;;;;;;;;;;;;;;;-0.14;92.02;98630.95;107229;1254;124954;-83
2023/03/11 03:15:58;;;;;;;;;;;;;;;-0.15;92.35;98635.42;107936;1254;61176;-83
2023/03/11 03:18:25;;;;;;;;;;;;;;;-0.18;92.83;98635.30;107969;1254;73421;-83
2023/03/11 03:20:52;;;;;;;;;;;;;;;-0.20;92.88;98634.22;107792;1257;124847;-84
2023/03/11 03:23:19;;;;;;;;;;;;;;;-0.17;92.96;98639.48;107572;1254;73000;-83
2023/03/11 03:25:46;;;;;;;;;;;;;;;-0.18;92.66;98637.02;107225;1260;125140;-83
2023/03/11 03:28:13;;;;;;;;;;;;;;;-0.18;92.49;98640.14;107545;1255;61221;-83
2023/03/11 03:30:41;;;;;;;;;;;;;;;-0.21;92.95;98638.33;107581;1254;73744;-82
2023/03/11 03:33:09;;;;;;;;;;;;;;;-0.21;92.90;98637.10;107609;1254;125161;-82
2023/03/11 03:35:39;;;;;;;;;;;;;;;-0.20;92.36;98641.29;107691;1254;71123;-83
2023/03/11 03:38:06;;;;;;;;;;;;;;;-0.19;92.07;98640.09;107374;1254;124431;-83
2023/03/11 03:40:37;;;;;;;;;;;;;;;-0.16;91.93;98642.95;107425;1254;61259;-83
2023/03/11 03:43:04;;;;;;;;;;;;;;;-0.15;91.70;98642.48;107289;1254;124714;-83
2023/03/11 03:45:31;;;;;;;;;;;;;;;-0.17;91.39;98642.07;107321;1254;66845;-83
2023/03/11 03:47:58;;;;;;;;;;;;;;;-0.20;91.47;98642.14;107577;1254;72988;-83
2023/03/11 03:50:26;;;;;;;;;;;;;;;-0.22;91.39;98641.73;107262;1254;125086;-83
2023/03/11 03:52:55;;;;;;;;;;;;;;;-0.21;91.40;98636.41;108168;1254;61203;-84
2023/03/11 03:55:23;;;;;;;;;;;;;;;-0.24;91.37;98642.19;108007;1254;124957;-83
2023/03/11 03:57:52;;;;;;;;;;;;;;;-0.24;91.32;98645.11;107646;1255;64728;-83
2023/03/11 04:00:19;;;;;;;;;;;;;;;-0.25;91.27;98661.61;107925;1254;72688;-83
2023/03/11 04:02:47;;;;;;;;;;;;;;;-0.28;91.67;98654.79;108103;1257;124666;-83
2023/03/11 04:05:17;;;;;;;;;;;;;;;-0.29;92.14;98663.38;107518;1260;61327;-83
2023/03/11 04:07:44;;;;;;;;;;;;;;;-0.30;92.50;98659.56;107430;1258;124826;-83
2023/03/11 04:10:12;;;;;;;;;;;;;;;-0.32;92.81;98656.54;107539;1254;67122;-83
2023/03/11 04:12:40;;;;;;;;;;;;;;;-0.34;93.36;98670.45;107386;1254;72588;-83
2023/03/11 04:15:13;;;;;;;;;;;;;;;-0.37;93.54;98669.48;107697;1254;124365;-85
2023/03/11 04:17:47;;;;;;;;;;;;;;;-0.37;94.06;98669.48;107276;1257;59974;-85
2023/03/11 04:20:47;;;;;;;;;;;;;;;-0.38;94.36;98677.37;107190;1254;124913;-85
2023/03/11 04:23:21;;;;;;;;;;;;;;;-0.42;94.38;98670.69;107344;1254;66790;-85
2023/03/11 04:25:48;;;;;;;;;;;;;;;-0.41;94.45;98670.75;107290;1254;124607;-86
2023/03/11 04:28:16;;;;;;;;;;;;;;;-0.41;94.08;98671.58;107288;1254;61228;-86
2023/03/11 04:30:52;;;;;;;;;;;;;;;-0.41;94.13;98672.96;107465;1254;61260;-86
2023/03/11 04:33:34;;;;;;;;;;;;;;;-0.41;93.99;98675.20;107328;1254;73810;-86
2023/03/11 04:36:14;;;;;;;;;;;;;;;-0.41;94.26;98674.00;107236;1254;65779;-86
2023/03/11 04:38:44;;;;;;;;;;;;;;;-0.43;94.32;98684.94;107428;1254;127445;-86
2023/03/11 04:41:30;;;;;;;;;;;;;;;-0.47;94.22;98689.45;107595;1259;61203;-86
2023/03/11 04:44:03;;;;;;;;;;;;;;;-0.50;94.90;98688.00;107291;1254;124592;-85
2023/03/11 04:46:36;;;;;;;;;;;;;;;-0.50;95.60;98695.38;107163;1254;74410;-85
2023/03/11 04:49:03;;;;;;;;;;;;;;;-0.53;95.96;98698.05;107391;1255;125563;-83
2023/03/11 04:51:30;;;;;;;;;;;;;;;-0.54;96.50;98704.90;107778;1254;70709;-83
2023/03/11 04:53:57;;;;;;;;;;;;;;;-0.55;96.78;98709.14;107745;1254;60082;-83
2023/03/11 04:56:27;;;;;;;;;;;;;;;-0.55;97.02;98712.26;107396;1254;125202;-85
2023/03/11 04:58:54;;;;;;;;;;;;;;;-0.52;96.87;98715.10;107398;1254;74107;-85
2023/03/11 05:01:23;;;;;;;;;;;;;;;-0.52;96.72;98715.48;107430;1254;124589;-86
2023/03/11 05:04:09;;;;;;;;;;;;;;;-0.53;96.43;98712.67;107485;1254;72996;-85
2023/03/11 05:06:52;;;;;;;;;;;;;;;-0.54;96.10;98723.16;107160;1254;60275;-86
2023/03/11 05:09:25;;;;;;;;;;;;;;;-0.56;95.80;98725.64;107356;1254;60916;-84
2023/03/11 05:11:52;;;;;;;;;;;;;;;-0.59;95.80;98724.02;107527;1254;73363;-86
2023/03/11 05:14:26;;;;;;;;;;;;;;;-0.59;96.12;98727.80;108015;1254;124613;-86
2023/03/11 05:16:53;;;;;;;;;;;;;;;-0.57;96.34;98730.78;107670;1254;72681;-86
2023/03/11 05:19:29;;;;;;;;;;;;;;;-0.57;96.46;98729.41;107347;1254;124776;-85
2023/03/11 05:22:03;;;;;;;;;;;;;;;-0.58;96.40;98731.44;107420;1254;59887;-85
2023/03/11 05:24:31;;;;;;;;;;;;;;;-0.59;96.68;98732.80;107308;1257;74482;-85
2023/03/11 05:27:05;;;;;;;;;;;;;;;-0.58;96.75;98734.56;107433;1254;124400;-85
2023/03/11 05:29:33;;;;;;;;;;;;;;;-0.55;96.74;98735.68;107329;1257;72567;-84
2023/03/11 05:32:05;;;;;;;;;;;;;;;-0.53;96.39;98742.81;107288;1255;124696;-85
2023/03/11 05:34:33;;;;;;;;;;;;;;;-0.50;96.34;98745.32;107037;1256;61730;-84
2023/03/11 05:37:08;;;;;;;;;;;;;;;-0.50;96.21;98744.66;106999;1256;125135;-85
2023/03/11 05:39:41;;;;;;;;;;;;;;;-0.48;96.09;98757.48;107082;1257;67051;-86
2023/03/11 05:42:15;;;;;;;;;;;;;;;-0.48;96.34;98759.55;107305;1257;71054;-85
2023/03/11 05:44:49;;;;;;;;;;;;;;;-0.48;96.51;98755.58;107160;1256;124860;-85
2023/03/11 05:47:16;;;;;;;;;;;;;;;-0.47;96.66;98768.73;107249;1255;60491;-85
2023/03/11 05:49:46;;;;;;;;;;;;;;;-0.45;96.59;98768.60;107246;1256;124602;-85
2023/03/11 05:52:14;;;;;;;;;;;;;;;-0.45;96.52;98779.14;107192;1256;66980;-84
2023/03/11 05:54:43;;;;;;;;;;;;;;;-0.44;96.51;98786.22;107252;1258;72725;-85
2023/03/11 05:57:16;;;;;;;;;;;;;;;-0.45;96.35;98788.61;107151;1256;124369;-85
2023/03/11 05:59:43;;;;;;;;;;;;;;;-0.44;96.25;98801.06;107459;1256;61343;-85
2023/03/11 06:02:19;;;;;;;;;;;;;;;-0.44;95.99;98806.06;107298;1257;124630;-84
2023/03/11 06:05:01;;;;;;;;;;;;;;;-0.44;95.75;98807.58;107397;1257;66750;-86
2023/03/11 06:07:37;;;;;;;;;;;;;;;-0.43;95.32;98809.35;107238;1255;124569;-85
2023/03/11 06:13:04;;;;;;;;;;;;;;;-0.38;94.70;98829.01;107155;1257;124608;-82
2023/03/11 06:15:38;;;;;;;;;;;;;;;-0.36;94.43;98826.66;108003;1256;73039;-84
2023/03/11 06:18:08;;;;;;;;;;;;;;;-0.31;94.50;98835.15;107594;1256;66316;-84
2023/03/11 06:20:36;;;;;;;;;;;;;;;-0.28;94.05;98835.38;107664;1257;125028;-84
2023/03/11 06:23:04;;;;;;;;;;;;;;;-0.29;93.56;98838.84;107449;1256;61349;-84
2023/03/11 06:25:33;;;;;;;;;;;;;;;-0.29;93.06;98849.36;107458;1256;124570;-86
2023/03/11 06:28:03;;;;;;;;;;;;;;;-0.28;92.94;98851.47;107609;1256;72074;-86
2023/03/11 06:30:39;;;;;;;;;;;;;;;-0.26;92.70;98857.39;107773;1256;65549;-86
2023/03/11 06:33:07;;;;;;;;;;;;;;;-0.25;92.20;98849.83;107890;1256;124726;-85
2023/03/11 06:35:36;;;;;;;;;;;;;;;-0.25;91.83;98855.72;107686;1256;61263;-88
2023/03/11 06:38:04;;;;;;;;;;;;;;;-0.22;91.70;98858.21;107460;1257;124443;-84
2023/03/11 06:40:32;;;;;;;;;;;;;;;-0.19;91.46;98858.32;107752;1256;72510;-85
2023/03/11 06:42:59;;;;;;;;;;;;;;;-0.16;91.16;98870.84;107714;1256;125172;-84
2023/03/11 06:45:28;;;;;;;;;;;;;;;-0.16;90.72;98871.87;107970;1257;71014;-84
2023/03/11 06:48:01;;;;;;;;;;;;;;;-0.14;90.44;98881.96;107952;1256;61218;-84
2023/03/11 06:50:29;;;;;;;;;;;;;;;-0.11;90.15;98885.51;107678;1256;124591;-85
2023/03/11 06:52:56;;;;;;;;;;;;;;;-0.09;89.91;98903.00;107883;1256;72722;-83
2023/03/11 06:55:24;;;;;;;;;;;;;;;-0.10;89.78;98904.02;107791;1256;124632;-87
2023/03/11 06:57:51;;;;;;;;;;;;;;;-0.10;89.40;98904.16;107883;1255;72687;-84
2023/03/11 07:00:18;;;;;;;;;;;;;;;-0.11;89.47;98916.73;107845;1256;60565;-81
2023/03/11 07:02:46;;;;;;;;;;;;;;;-0.11;90.10;98915.66;107552;1256;125073;-81
2023/03/11 07:05:16;;;;;;;;;;;;;;;-0.12;91.05;98921.02;107593;1256;74709;-82
2023/03/11 07:07:43;;;;;;;;;;;;;;;-0.10;91.32;98928.33;107565;1255;124661;-82
2023/03/11 07:10:11;;;;;;;;;;;;;;;-0.08;91.75;98936.30;107535;1255;73354;-82
2023/03/11 07:12:38;;;;;;;;;;;;;;;-0.07;92.08;98939.80;107656;1256;61363;-81
2023/03/11 07:15:05;;;;;;;;;;;;;;;-0.06;92.39;98943.66;107797;1256;124600;-81
2023/03/11 07:17:32;;;;;;;;;;;;;;;-0.04;92.51;98950.09;108145;1256;74675;-81
2023/03/11 07:20:00;;;;;;;;;;;;;;;-0.04;92.30;98948.03;107955;1256;125741;-84
2023/03/11 07:22:28;;;;;;;;;;;;;;;-0.02;92.20;98957.42;108082;1256;71080;-83
2023/03/11 07:24:56;;;;;;;;;;;;;;;-0.01;92.50;98962.98;107850;1255;125643;-83
2023/03/11 07:27:26;;;;;;;;;;;;;;;0.03;92.41;98970.70;107837;1255;60563;-84
2023/03/11 07:29:53;;;;;;;;;;;;;;;0.04;92.23;98971.57;107777;1256;73495;-85
2023/03/11 07:32:22;;;;;;;;;;;;;;;0.06;92.38;98974.08;107926;1254;124514;-86
2023/03/11 07:34:49;;;;;;;;;;;;;;;0.13;92.62;98976.77;108312;1254;71816;-86
2023/03/11 07:37:16;;;;;;;;;;;;;;;0.22;92.55;98978.33;107932;1256;124590;-87
2023/03/11 07:39:43;;;;;;;;;;;;;;;0.29;92.16;98983.77;108068;1256;59612;-85
2023/03/11 07:42:12;;;;;;;;;;;;;;;0.36;91.79;98988.33;108131;1257;73134;-86
2023/03/11 07:44:41;;;;;;;;;;;;;;;0.39;91.64;98989.33;107837;1256;124491;-82
2023/03/11 07:47:08;;;;;;;;;;;;;;;0.43;91.46;98991.51;107969;1256;70818;-82
2023/03/11 07:49:36;;;;;;;;;;;;;;;0.45;91.04;98995.02;108118;1256;125150;-83
2023/03/11 07:52:03;;;;;;;;;;;;;;;0.47;91.12;99004.77;108227;1256;60013;-81
2023/03/11 07:54:30;;;;;;;;;;;;;;;0.50;90.94;99013.70;108194;1256;74274;-82
2023/03/11 07:56:57;;;;;;;;;;;;;;;0.50;90.81;99013.89;107980;1259;124477;-80
2023/03/11 07:59:25;;;;;;;;;;;;;;;0.51;90.48;99018.59;107920;1256;71806;-80
2023/03/11 08:01:52;;;;;;;;;;;;;;;0.55;90.57;99020.45;107568;1256;124646;-80
2023/03/11 08:04:20;;;;;;;;;;;;;;;0.61;90.69;99032.71;107928;1256;62021;-80
2023/03/11 08:06:47;;;;;;;;;;;;;;;0.67;90.70;99034.17;108022;1259;73013;-82
2023/03/11 08:09:14;;;;;;;;;;;;;;;0.74;90.23;99042.05;107948;1255;124065;-80
2023/03/11 08:11:41;;;;;;;;;;;;;;;0.77;89.57;99049.21;107944;1256;72274;-81
2023/03/11 08:14:08;;;;;;;;;;;;;;;0.76;88.88;99050.39;107834;1256;61132;-82
2023/03/11 08:16:35;;;;;;;;;;;;;;;0.78;88.96;99054.59;107419;1256;60173;-82
2023/03/11 08:19:02;;;;;;;;;;;;;;;0.80;88.19;99057.10;107610;1256;124558;-81
2023/03/11 08:21:31;;;;;;;;;;;;;;;0.82;88.11;99070.45;107673;1260;65554;-80
2023/03/11 08:23:59;;;;;;;;;;;;;;;0.83;87.84;99073.59;107504;1256;73193;-82
2023/03/11 08:26:26;;;;;;;;;;;;;;;0.84;87.30;99076.92;107249;1260;124285;-81
2023/03/11 08:28:53;;;;;;;;;;;;;;;0.86;86.88;99083.39;107604;1259;60322;-81
2023/03/11 08:31:22;;;;;;;;;;;;;;;0.84;86.16;99090.55;107906;1256;125049;-81
2023/03/11 08:33:50;;;;;;;;;;;;;;;0.86;86.06;99089.61;108180;1256;66999;-82
2023/03/11 08:36:17;;;;;;;;;;;;;;;0.92;85.69;99096.73;107970;1256;72712;-81
2023/03/11 08:38:44;;;;;;;;;;;;;;;0.94;85.31;99098.17;107671;1256;124745;-81
2023/03/11 08:41:11;;;;;;;;;;;;;;;1.00;85.16;99097.86;107705;1256;59538;-81
2023/03/11 08:43:38;;;;;;;;;;;;;;;1.04;84.73;99097.30;107652;1256;124663;-81
2023/03/11 08:46:08;;;;;;;;;;;;;;;1.10;84.67;99102.90;107720;1256;67325;-81
2023/03/11 08:48:35;;;;;;;;;;;;;;;1.16;84.32;99113.67;107698;1256;72724;-81
2023/03/11 08:51:07;;;;;;;;;;;;;;;1.17;83.84;99115.25;107738;1256;125230;-83
2023/03/11 08:53:36;;;;;;;;;;;;;;;1.18;83.51;99122.38;108033;1256;59789;-80
2023/03/11 08:56:03;;;;;;;;;;;;;;;1.18;83.07;99118.57;108262;1256;124900;-80
2023/03/11 08:58:30;;;;;;;;;;;;;;;1.19;82.51;99120.85;107979;1256;65548;-82
2023/03/11 09:00:58;;;;;;;;;;;;;;;1.20;82.22;99122.77;107790;1256;71464;-81
2023/03/11 09:03:26;;;;;;;;;;;;;;;1.24;82.10;99125.70;107738;1255;60820;-81
2023/03/11 09:05:57;;;;;;;;;;;;;;;1.29;81.92;99127.95;107777;1256;61276;-82
2023/03/11 09:08:24;;;;;;;;;;;;;;;1.32;82.04;99135.48;107446;1255;124446;-82
2023/03/11 09:10:53;;;;;;;;;;;;;;;1.36;81.60;99145.48;107572;1256;65840;-82
2023/03/11 09:13:22;;;;;;;;;;;;;;;1.38;81.54;99151.77;107730;1256;124889;-81
2023/03/11 09:15:49;;;;;;;;;;;;;;;1.41;81.43;99156.52;107976;1256;60459;-81
2023/03/11 09:18:16;;;;;;;;;;;;;;;1.41;80.96;99162.61;108062;1257;59469;-80
2023/03/11 09:20:44;;;;;;;;;;;;;;;1.42;81.00;99176.98;107772;1256;124656;-82
2023/03/11 09:23:12;;;;;;;;;;;;;;;1.46;80.79;99181.11;108069;1256;67587;-80
2023/03/11 09:25:40;;;;;;;;;;;;;;;1.56;80.68;99181.29;107656;1255;124106;-80
2023/03/11 09:28:07;;;;;;;;;;;;;;;1.67;80.64;99181.69;107612;1255;61363;-81
2023/03/11 09:30:34;;;;;;;;;;;;;;;1.82;80.37;99187.86;107541;1260;61119;-81
2023/03/11 09:33:01;;;;;;;;;;;;;;;1.88;79.53;99197.96;107442;1256;124157;-80
2023/03/11 09:35:28;;;;;;;;;;;;;;;1.93;79.55;99201.07;107894;1256;67567;-80
2023/03/11 09:37:55;;;;;;;;;;;;;;;2.01;78.92;99205.15;107894;1255;124328;-80
2023/03/11 09:40:22;;;;;;;;;;;;;;;2.08;79.10;99213.52;107567;1256;261682;-79
2023/03/11 09:43:08;;;;;;;;;;;;;;;2.11;78.22;99225.91;107635;1256;59882;-80
2023/03/11 09:45:37;;;;;;;;;;;;;;;1.96;77.56;99228.86;108017;1255;74716;-80
2023/03/11 09:48:26;;;;;;;;;;;;;;;1.91;77.93;99228.84;108085;1257;66904;-86
2023/03/11 09:51:07;;;;;;;;;;;;;;;1.94;78.03;99232.42;107758;1256;123473;-87
2023/03/11 09:53:38;;;;;;;;;;;;;;;1.93;77.17;99239.64;107879;1254;60495;-84
2023/03/11 09:56:13;;;;;;;;;;;;;;;1.86;76.85;99239.55;107258;1255;123629;-84
2023/03/11 09:59:05;;;;;;;;;;;;;;;1.89;76.75;99243.48;107569;1256;73943;-88
2023/03/11 10:01:33;;;;;;;;;;;;;;;2.03;77.25;99243.45;107478;1256;123777;-87
2023/03/11 10:04:04;;;;;;;;;;;;;;;2.15;77.16;99245.95;107598;1256;72915;-80
2023/03/11 10:06:31;;;;;;;;;;;;;;;2.17;77.29;99257.77;107705;1256;60851;-81
2023/03/11 10:09:05;;;;;;;;;;;;;;;2.23;76.80;99262.13;107764;1258;124323;-81
2023/03/11 10:11:45;;;;;;;;;;;;;;;2.30;76.55;99262.91;108811;1255;75088;-82
2023/03/11 10:14:31;;;;;;;;;;;;;;;2.32;76.29;99269.39;108921;1255;123516;-80
2023/03/11 10:17:00;;;;;;;;;;;;;;;2.40;76.06;99277.42;109044;1256;71518;-82
2023/03/11 10:19:47;;;;;;;;;;;;;;;2.43;75.44;99275.11;108014;1258;124024;-85
2023/03/11 10:22:21;;;;;;;;;;;;;;;2.34;74.87;99288.30;107597;1256;60286;-82
2023/03/11 10:24:56;;;;;;;;;;;;;;;2.28;74.88;99295.70;107787;1256;74950;-81
2023/03/11 10:27:26;;;;;;;;;;;;;;;2.21;74.86;99303.25;107592;1256;124091;-90
2023/03/11 10:30:02;;;;;;;;;;;;;;;2.20;75.29;99307.22;107691;1255;72681;-90
2023/03/11 10:33:02;;;;;;;;;;;;;;;2.20;74.97;99314.83;107629;1256;123562;-80
2023/03/11 10:35:44;;;;;;;;;;;;;;;2.21;75.04;99308.43;107431;1263;59354;-88
2023/03/11 10:38:14;;;;;;;;;;;;;;;2.33;75.33;99313.19;107273;1263;124589;-88
2023/03/11 10:40:44;;;;;;;;;;;;;;;2.52;75.00;99317.64;107323;1263;67568;-88
2023/03/11 10:46:22;;;;;;;;;;;;;;;2.62;75.72;99316.96;107394;1264;61349;-88
2023/03/11 10:48:51;;;;;;;;;;;;;;;2.74;76.22;99319.42;107433;1265;60598;-89
2023/03/11 10:51:25;;;;;;;;;;;;;;;2.82;75.39;99321.07;107452;1264;123864;-88
2023/03/11 10:54:24;;;;;;;;;;;;;;;2.79;74.71;99328.25;107503;1264;65925;-89
2023/03/11 10:57:19;;;;;;;;;;;;;;;2.88;75.03;99326.46;106854;1264;126020;-89
2023/03/11 10:59:54;;;;;;;;;;;;;;;3.10;74.95;99340.01;106965;1270;61437;-88
2023/03/11 11:02:32;;;;;;;;;;;;;;;3.19;73.72;99337.70;106909;1270;123615;-89
2023/03/11 11:05:19;;;;;;;;;;;;;;;3.15;72.52;99341.20;106642;1270;74730;-88
2023/03/11 11:07:54;;;;;;;;;;;;;;;3.14;71.98;99347.06;106545;1270;124544;-88
2023/03/11 11:10:23;;;;;;;;;;;;;;;3.12;71.81;99351.68;106459;1272;72747;-81
2023/03/11 11:13:02;;;;;;;;;;;;;;;3.03;71.84;99353.47;106824;1263;59772;-81
2023/03/11 11:15:36;;;;;;;;;;;;;;;3.03;72.00;99356.95;107142;1264;61451;-86
2023/03/11 11:18:04;;;;;;;;;;;;;;;3.10;72.18;99375.36;106985;1263;74227;-81
2023/03/11 11:20:32;;;;;;;;;;;;;;;3.04;71.85;99368.05;106982;1263;124228;-81
2023/03/11 11:23:00;;;;;;;;;;;;;;;3.01;71.98;99371.60;106911;1264;73181;-81
2023/03/11 11:25:32;;;;;;;;;;;;;;;3.00;71.59;99374.15;106934;1264;123866;-81
2023/03/11 11:28:00;;;;;;;;;;;;;;;3.00;71.04;99387.52;106965;1265;60179;-81
2023/03/11 11:30:27;;;;;;;;;;;;;;;2.94;70.08;99397.19;107152;1263;75070;-81
2023/03/11 11:33:19;;;;;;;;;;;;;;;2.86;70.24;99389.48;106839;1262;123814;-88
2023/03/11 11:35:53;;;;;;;;;;;;;;;2.87;70.32;99387.43;106921;1262;72698;-81
2023/03/11 11:38:23;;;;;;;;;;;;;;;2.89;70.54;99391.30;107357;1254;123776;-89
2023/03/11 11:40:57;;;;;;;;;;;;;;;2.85;70.31;99397.75;107568;1254;60975;-87
2023/03/11 11:43:46;;;;;;;;;;;;;;;2.76;69.95;99405.24;107389;1254;123764;-80
2023/03/11 11:50:03;;;;;;;;;;;;;;;2.84;69.17;99419.36;107610;1254;123794;-80
2023/03/11 11:52:32;;;;;;;;;;;;;;;2.87;69.82;99408.56;107765;1256;60061;-81
2023/03/11 11:55:04;;;;;;;;;;;;;;;3.00;69.03;99409.16;107470;1254;60062;-88
2023/03/11 11:57:39;;;;;;;;;;;;;;;3.09;69.26;99412.41;107191;1254;123531;-88
2023/03/11 12:00:13;;;;;;;;;;;;;;;3.16;69.01;99410.74;107156;1254;67034;-87
2023/03/11 12:02:44;;;;;;;;;;;;;;;3.29;68.78;99412.21;107161;1255;123801;-87
2023/03/11 12:05:15;;;;;;;;;;;;;;;3.35;68.41;99421.08;107332;1254;62198;-88
2023/03/11 12:07:49;;;;;;;;;;;;;;;3.40;67.62;99431.83;107225;1254;123915;-88
2023/03/11 12:13:47;;;;;;;;;;;;;;;3.78;67.62;99444.47;107213;1256;123701;-88
2023/03/11 12:16:20;;;;;;;;;;;;;;;3.84;67.34;99441.70;107867;1254;72749;-81
2023/03/11 12:18:49;;;;;;;;;;;;;;;3.84;66.02;99452.12;107745;1254;59409;-81
2023/03/11 12:21:35;;;;;;;;;;;;;;;3.77;65.88;99464.36;107518;1254;124125;-88
2023/03/11 12:24:04;;;;;;;;;;;;;;;3.69;65.90;99467.97;107537;1254;74744;-87
2023/03/11 12:26:32;;;;;;;;;;;;;;;3.61;65.03;99469.42;107592;1254;123816;-88
2023/03/11 12:29:06;;;;;;;;;;;;;;;3.48;65.39;99482.18;107319;1257;71372;-88
2023/03/11 12:31:37;;;;;;;;;;;;;;;3.34;65.15;99482.59;107499;1254;124548;-81
2023/03/11 12:34:11;;;;;;;;;;;;;;;3.15;65.14;99490.46;107348;1254;59998;-87
2023/03/11 12:36:58;;;;;;;;;;;;;;;2.99;65.72;99484.89;107435;1254;74427;-87
2023/03/11 12:39:29;;;;;;;;;;;;;;;2.91;65.73;99492.56;107429;1255;123564;-81
2023/03/11 12:42:16;;;;;;;;;;;;;;;2.85;65.83;99493.40;108549;1257;72618;-81
2023/03/11 12:44:44;;;;;;;;;;;;;;;2.80;66.10;99496.33;107825;1254;124040;-81
2023/03/11 12:47:21;;;;;;;;;;;;;;;2.73;67.23;99507.34;107705;1257;59661;-81
2023/03/11 12:49:50;;;;;;;;;;;;;;;2.64;66.57;99507.19;108667;1254;124146;-81
2023/03/11 12:52:23;;;;;;;;;;;;;;;2.62;66.40;99509.52;107626;1258;65567;-81
2023/03/11 12:54:50;;;;;;;;;;;;;;;2.61;66.76;99514.50;107355;1257;72831;-89
2023/03/11 12:57:45;;;;;;;;;;;;;;;2.64;66.64;99518.28;107174;1254;123666;-88
2023/03/11 13:00:21;;;;;;;;;;;;;;;2.67;66.63;99522.20;107321;1256;61192;-81
2023/03/11 13:03:07;;;;;;;;;;;;;;;2.70;66.70;99521.45;107628;1254;123991;-81
2023/03/11 13:05:53;;;;;;;;;;;;;;;2.68;66.57;99523.10;107955;1254;65758;-79
2023/03/11 13:08:20;;;;;;;;;;;;;;;2.79;66.97;99524.17;108058;1254;124092;-81
2023/03/11 13:10:47;;;;;;;;;;;;;;;2.90;67.33;99530.31;107842;1256;59753;-81
2023/03/11 13:13:30;;;;;;;;;;;;;;;2.98;67.26;99538.58;107493;1254;123794;-81